sensor_id;sensor_type;location;lat;lon;timestamp;pressure;altitude;pressure_sealevel;temperature;humidity
45113;BME280;30873;53.908;27.576;2023-03-05T00:04:11;998;;;1.2;66.8
45113;BME280;30873;53.908;27.576;2023-03-05T00:08:31;998;;;1.2;67
45113;BME280;30873;53.908;27.576;2023-03-05T00:14:09;998;;;1.3;66.3
45113;BME280;30873;53.908;27.576;2023-03-05T00:18:41;998;;;1.3;65.8
45113;BME280;30873;53.908;27.576;2023-03-05T00:23:58;998.1;;;1.4;65.3
45113;BME280;30873;53.908;27.576;2023-03-05T00:29:10;998.1;;;1.4;65.3
45113;BME280;30873;53.908;27.576;2023-03-05T00:33:43;998.1;;;1.4;65.2
45113;BME280;30873;53.908;27.576;2023-03-05T00:39:10;998.1;;;1.4;65.1
45113;BME280;30873;53.908;27.576;2023-03-05T00:43:42;998.2;;;1.4;64.9
45113;BME280;30873;53.908;27.576;2023-03-05T00:48:57;998.2;;;1.4;65
45113;BME280;30873;53.908;27.576;2023-03-05T00:54:09;998.3;;;1.4;64.9
45113;BME280;30873;53.908;27.576;2023-03-05T00:58:45;998.2;;;1.4;64.6
45113;BME280;30873;53.908;27.576;2023-03-05T01:04:09;998.3;;;1.5;64.4
45113;BME280;30873;53.908;27.576;2023-03-05T01:08:31;998.3;;;1.5;64.2
45113;BME280;30873;53.908;27.576;2023-03-05T01:13:59;998.3;;;1.5;64.1
45113;BME280;30873;53.908;27.576;2023-03-05T01:19:09;998.4;;;1.5;64.3
45113;BME280;30873;53.908;27.576;2023-03-05T01:23:45;998.5;;;1.6;64.4
45113;BME280;30873;53.908;27.576;2023-03-05T01:29:09;998.5;;;1.6;64.5
45113;BME280;30873;53.908;27.576;2023-03-05T01:33:33;998.5;;;1.6;64.2
45113;BME280;30873;53.908;27.576;2023-03-05T01:38:59;998.5;;;1.6;63.8
45113;BME280;30873;53.908;27.576;2023-03-05T01:44:16;998.6;;;1.6;63.6
45113;BME280;30873;53.908;27.576;2023-03-05T01:48:44;998.6;;;1.7;63.4
45113;BME280;30873;53.908;27.576;2023-03-05T01:54:10;998.7;;;1.6;63.1
45113;BME280;30873;53.908;27.576;2023-03-05T01:58:39;998.7;;;1.6;63
45113;BME280;30873;53.908;27.576;2023-03-05T02:03:59;998.7;;;1.7;62.4
45113;BME280;30873;53.908;27.576;2023-03-05T02:09:05;998.8;;;1.7;62.1
45113;BME280;30873;53.908;27.576;2023-03-05T02:13:32;998.8;;;1.6;62
45113;BME280;30873;53.908;27.576;2023-03-05T02:19:10;998.9;;;1.6;62.2
45113;BME280;30873;53.908;27.576;2023-03-05T02:23:35;999;;;1.6;62.8
45113;BME280;30873;53.908;27.576;2023-03-05T02:29:00;999;;;1.5;63.8
45113;BME280;30873;53.908;27.576;2023-03-05T02:34:05;999.1;;;1.4;64.7
45113;BME280;30873;53.908;27.576;2023-03-05T02:38:45;999.2;;;1.3;65.4
45113;BME280;30873;53.908;27.576;2023-03-05T02:44:07;999.2;;;1.3;65.8
45113;BME280;30873;53.908;27.576;2023-03-05T02:48:33;999.2;;;1.3;65.9
45113;BME280;30873;53.908;27.576;2023-03-05T02:53:59;999.2;;;1.3;65.9
45113;BME280;30873;53.908;27.576;2023-03-05T02:59:09;999.2;;;1.3;65.6
45113;BME280;30873;53.908;27.576;2023-03-05T03:03:45;999.3;;;1.4;65.2
45113;BME280;30873;53.908;27.576;2023-03-05T03:09:07;999.3;;;1.4;64.8
45113;BME280;30873;53.908;27.576;2023-03-05T03:13:47;999.4;;;1.4;64.4
45113;BME280;30873;53.908;27.576;2023-03-05T03:18:59;999.4;;;1.5;64.3
45113;BME280;30873;53.908;27.576;2023-03-05T03:24:09;999.5;;;1.5;64.1
45113;BME280;30873;53.908;27.576;2023-03-05T03:28:44;999.5;;;1.5;64
45113;BME280;30873;53.908;27.576;2023-03-05T03:34:06;999.5;;;1.5;64
45113;BME280;30873;53.908;27.576;2023-03-05T03:38:41;999.6;;;1.5;64.2
45113;BME280;30873;53.908;27.576;2023-03-05T03:43:47;999.6;;;1.6;63.8
45113;BME280;30873;53.908;27.576;2023-03-05T03:49:10;999.6;;;1.6;63.9
45113;BME280;30873;53.908;27.576;2023-03-05T03:53:46;999.7;;;1.5;63.9
45113;BME280;30873;53.908;27.576;2023-03-05T03:59:10;999.7;;;1.5;64
45113;BME280;30873;53.908;27.576;2023-03-05T04:03:33;999.7;;;1.5;64.1
45113;BME280;30873;53.908;27.576;2023-03-05T04:08:59;999.7;;;1.4;63.9
45113;BME280;30873;53.908;27.576;2023-03-05T04:14:09;999.7;;;1.3;64.1
45113;BME280;30873;53.908;27.576;2023-03-05T04:18:45;999.8;;;1.2;64.3
45113;BME280;30873;53.908;27.576;2023-03-05T04:24:09;999.8;;;1.1;64.3
45113;BME280;30873;53.908;27.576;2023-03-05T04:28:41;999.9;;;1.2;64.1
45113;BME280;30873;53.908;27.576;2023-03-05T04:33:59;999.9;;;1.3;63.6
45113;BME280;30873;53.908;27.576;2023-03-05T04:39:09;999.9;;;1.3;63
45113;BME280;30873;53.908;27.576;2023-03-05T04:43:33;999.9;;;1.4;62.3
45113;BME280;30873;53.908;27.576;2023-03-05T04:48:56;1000;;;1.5;62
45113;BME280;30873;53.908;27.576;2023-03-05T04:53:39;1000.1;;;1.5;61.4
45113;BME280;30873;53.908;27.576;2023-03-05T04:58:59;1000.1;;;1.5;60.9
45113;BME280;30873;53.908;27.576;2023-03-05T05:03:43;1000.1;;;1.5;61.1
45113;BME280;30873;53.908;27.576;2023-03-05T05:08:41;1000.2;;;1.5;61.3
45113;BME280;30873;53.908;27.576;2023-03-05T05:14:05;1000.2;;;1.5;61.2
45113;BME280;30873;53.908;27.576;2023-03-05T05:18:22;1000.3;;;1.6;60.9
45113;BME280;30873;53.908;27.576;2023-03-05T05:23:57;1000.3;;;1.6;61
45113;BME280;30873;53.908;27.576;2023-03-05T05:28:51;1000.4;;;1.5;61.3
45113;BME280;30873;53.908;27.576;2023-03-05T05:33:31;1000.3;;;1.6;61.3
45113;BME280;30873;53.908;27.576;2023-03-05T05:39:09;1000.4;;;1.7;60.9
45113;BME280;30873;53.908;27.576;2023-03-05T05:43:40;1000.4;;;1.8;60.5
45113;BME280;30873;53.908;27.576;2023-03-05T05:48:47;1000.4;;;1.9;60
45113;BME280;30873;53.908;27.576;2023-03-05T05:54:10;1000.5;;;2.1;59.6
45113;BME280;30873;53.908;27.576;2023-03-05T05:58:44;1000.5;;;2;59.5
45113;BME280;30873;53.908;27.576;2023-03-05T06:04:07;1000.5;;;2.2;59.3
45113;BME280;30873;53.908;27.576;2023-03-05T06:08:31;1000.6;;;2.2;59.1
45113;BME280;30873;53.908;27.576;2023-03-05T06:13:57;1000.6;;;2.4;59
45113;BME280;30873;53.908;27.576;2023-03-05T06:19:07;1000.7;;;2.4;58.7
45113;BME280;30873;53.908;27.576;2023-03-05T06:23:21;1000.7;;;2.3;58.8
45113;BME280;30873;53.908;27.576;2023-03-05T06:29:09;1000.7;;;2.4;58.7
45113;BME280;30873;53.908;27.576;2023-03-05T06:33:32;1000.8;;;2.5;58.6
45113;BME280;30873;53.908;27.576;2023-03-05T06:38:59;1000.9;;;2.5;58.7
45113;BME280;30873;53.908;27.576;2023-03-05T06:43:21;1000.9;;;2.8;58.4
45113;BME280;30873;53.908;27.576;2023-03-05T06:48:46;1000.9;;;2.6;59.3
45113;BME280;30873;53.908;27.576;2023-03-05T06:54:11;1001;;;2.7;59.4
45113;BME280;30873;53.908;27.576;2023-03-05T06:58:22;1001;;;2.6;59.3
45113;BME280;30873;53.908;27.576;2023-03-05T07:03:57;1001;;;2.6;59.3
45113;BME280;30873;53.908;27.576;2023-03-05T07:08:34;1001.1;;;3;59.1
45113;BME280;30873;53.908;27.576;2023-03-05T07:13:44;1001;;;3.3;58
45113;BME280;30873;53.908;27.576;2023-03-05T07:19:10;1001;;;3.3;57.8
45113;BME280;30873;53.908;27.576;2023-03-05T07:23:29;1001;;;3.2;57.9
45113;BME280;30873;53.908;27.576;2023-03-05T07:29:10;1001;;;3.4;57.4
45113;BME280;30873;53.908;27.576;2023-03-05T07:33:21;1001.1;;;3.3;56.8
45113;BME280;30873;53.908;27.576;2023-03-05T07:38:44;1001.2;;;3.4;56.5
45113;BME280;30873;53.908;27.576;2023-03-05T07:44:05;1001.2;;;3.4;56.3
45113;BME280;30873;53.908;27.576;2023-03-05T07:48:34;1001.2;;;3.6;55.4
45113;BME280;30873;53.908;27.576;2023-03-05T07:53:35;1001.3;;;3.6;54.6
45113;BME280;30873;53.908;27.576;2023-03-05T07:58:21;1001.4;;;3.7;54.7
45113;BME280;30873;53.908;27.576;2023-03-05T08:03:33;1001.4;;;3.8;54.1
45113;BME280;30873;53.908;27.576;2023-03-05T08:09:09;1001.4;;;3.7;53.8
45113;BME280;30873;53.908;27.576;2023-03-05T08:13:21;1001.4;;;4;53
45113;BME280;30873;53.908;27.576;2023-03-05T08:19:00;1001.4;;;4.1;52.2
45113;BME280;30873;53.908;27.576;2023-03-05T08:23:21;1001.4;;;4;52.1
45113;BME280;30873;53.908;27.576;2023-03-05T08:28:46;1001.4;;;4;51.8
45113;BME280;30873;53.908;27.576;2023-03-05T08:34:09;1001.5;;;4.4;51.2
45113;BME280;30873;53.908;27.576;2023-03-05T08:38:34;1001.5;;;4.5;50.9
45113;BME280;30873;53.908;27.576;2023-03-05T08:43:59;1001.5;;;4.4;50.2
45113;BME280;30873;53.908;27.576;2023-03-05T08:48:22;1001.5;;;4.4;49.6
45113;BME280;30873;53.908;27.576;2023-03-05T08:53:22;1001.6;;;4.9;48.7
45113;BME280;30873;53.908;27.576;2023-03-05T08:59:09;1001.6;;;4.9;48.1
45113;BME280;30873;53.908;27.576;2023-03-05T09:03:32;1001.6;;;4.5;48
45113;BME280;30873;53.908;27.576;2023-03-05T09:09:00;1001.6;;;5;47.8
45113;BME280;30873;53.908;27.576;2023-03-05T09:13:34;1001.5;;;5.8;46.9
45113;BME280;30873;53.908;27.576;2023-03-05T09:18:46;1001.6;;;5.8;46.3
45113;BME280;30873;53.908;27.576;2023-03-05T09:24:08;1001.7;;;5.4;46
45113;BME280;30873;53.908;27.576;2023-03-05T09:28:34;1001.7;;;5.3;46.4
45113;BME280;30873;53.908;27.576;2023-03-05T09:33:46;1001.7;;;5.6;45.7
45113;BME280;30873;53.908;27.576;2023-03-05T09:38:44;1001.7;;;5.4;46.3
45113;BME280;30873;53.908;27.576;2023-03-05T09:43:34;1001.7;;;5.5;46.2
45113;BME280;30873;53.908;27.576;2023-03-05T09:49:13;1001.6;;;6.2;45.2
45113;BME280;30873;53.908;27.576;2023-03-05T09:53:42;1001.6;;;6.1;44.4
45113;BME280;30873;53.908;27.576;2023-03-05T09:58:48;1001.6;;;6;44.3
45113;BME280;30873;53.908;27.576;2023-03-05T10:03:58;1001.6;;;7;43.2
45113;BME280;30873;53.908;27.576;2023-03-05T10:08:48;1001.5;;;9.2;38.8
45113;BME280;30873;53.908;27.576;2023-03-05T10:14:10;1001.5;;;9.6;37.9
45113;BME280;30873;53.908;27.576;2023-03-05T10:18:23;1001.5;;;8.4;39.8
45113;BME280;30873;53.908;27.576;2023-03-05T10:24:02;1001.5;;;7.3;41.9
45113;BME280;30873;53.908;27.576;2023-03-05T10:28:42;1001.5;;;7.2;41.6
45113;BME280;30873;53.908;27.576;2023-03-05T10:33:47;1001.5;;;6.2;43.1
45113;BME280;30873;53.908;27.576;2023-03-05T10:38:44;1001.6;;;5.2;46.5
45113;BME280;30873;53.908;27.576;2023-03-05T10:44:10;1001.7;;;4.1;54.1
45113;BME280;30873;53.908;27.576;2023-03-05T10:48:56;1001.6;;;5.9;52.5
45113;BME280;30873;53.908;27.576;2023-03-05T10:53:22;1001.5;;;9.4;44.8
45113;BME280;30873;53.908;27.576;2023-03-05T10:59:10;1001.4;;;10.9;40.8
45113;BME280;30873;53.908;27.576;2023-03-05T11:03:45;1001.4;;;10.5;38.9
45113;BME280;30873;53.908;27.576;2023-03-05T11:09:18;1001.3;;;12;37.4
45113;BME280;30873;53.908;27.576;2023-03-05T11:13:56;1001.4;;;11.5;36.9
45113;BME280;30873;53.908;27.576;2023-03-05T11:18:44;1001.4;;;9.7;39.7
45113;BME280;30873;53.908;27.576;2023-03-05T11:24:08;1001.3;;;10;39.9
45113;BME280;30873;53.908;27.576;2023-03-05T11:28:42;1001.2;;;10.4;39.2
45113;BME280;30873;53.908;27.576;2023-03-05T11:34:20;1001.2;;;13.3;34.7
45113;BME280;30873;53.908;27.576;2023-03-05T11:38:53;1001.1;;;12.3;34.2
45113;BME280;30873;53.908;27.576;2023-03-05T11:43:48;1001.1;;;14.1;31.6
45113;BME280;30873;53.908;27.576;2023-03-05T11:49:06;1000.9;;;15.4;29.8
45113;BME280;30873;53.908;27.576;2023-03-05T11:53:42;1000.9;;;16.2;28.8
45113;BME280;30873;53.908;27.576;2023-03-05T11:59:10;1000.9;;;14;30.6
45113;BME280;30873;53.908;27.576;2023-03-05T12:04:08;1001;;;12.7;32.8
45113;BME280;30873;53.908;27.576;2023-03-05T12:08:32;1000.9;;;12.8;32.1
45113;BME280;30873;53.908;27.576;2023-03-05T12:14:09;1001.1;;;9.5;35.4
45113;BME280;30873;53.908;27.576;2023-03-05T12:18:33;1001.1;;;9;36.8
45113;BME280;30873;53.908;27.576;2023-03-05T12:24:31;1001.2;;;7.3;41
45113;BME280;30873;53.908;27.576;2023-03-05T12:28:56;1001.2;;;6.9;43.4
45113;BME280;30873;53.908;27.576;2023-03-05T12:33:42;1001.3;;;6.3;45.3
45113;BME280;30873;53.908;27.576;2023-03-05T12:39:56;1001.3;;;5.9;47.6
45113;BME280;30873;53.908;27.576;2023-03-05T12:43:40;1001.3;;;7.2;46.5
45113;BME280;30873;53.908;27.576;2023-03-05T12:49:26;1001.2;;;7.6;44.9
45113;BME280;30873;53.908;27.576;2023-03-05T12:53:54;1001.2;;;6.5;46.5
45113;BME280;30873;53.908;27.576;2023-03-05T12:58:24;1001.3;;;5.8;48
45113;BME280;30873;53.908;27.576;2023-03-05T13:04:11;1001.4;;;4.9;50.6
45113;BME280;30873;53.908;27.576;2023-03-05T13:08:42;1001.4;;;4.2;54.5
45113;BME280;30873;53.908;27.576;2023-03-05T13:14:18;1001.4;;;4.2;55.1
45113;BME280;30873;53.908;27.576;2023-03-05T13:18:56;1001.3;;;4.4;53.6
45113;BME280;30873;53.908;27.576;2023-03-05T13:23:32;1001.4;;;4.4;53.8
45113;BME280;30873;53.908;27.576;2023-03-05T13:29:09;1001.3;;;7.7;48.1
45113;BME280;30873;53.908;27.576;2023-03-05T13:33:38;1001.2;;;9.3;43.2
45113;BME280;30873;53.908;27.576;2023-03-05T13:39:14;1001.2;;;7.4;46.7
45113;BME280;30873;53.908;27.576;2023-03-05T13:43:41;1001.2;;;6.1;49.9
45113;BME280;30873;53.908;27.576;2023-03-05T13:48:22;1001.3;;;5.3;51.6
45113;BME280;30873;53.908;27.576;2023-03-05T13:54:08;1001.3;;;4.7;53.3
45113;BME280;30873;53.908;27.576;2023-03-05T13:58:46;1001.3;;;4.1;55.4
45113;BME280;30873;53.908;27.576;2023-03-05T14:03:25;1001.2;;;4.1;56
45113;BME280;30873;53.908;27.576;2023-03-05T14:08:25;1001.2;;;4.3;55.8
45113;BME280;30873;53.908;27.576;2023-03-05T14:13:32;1001.1;;;5;54.4
45113;BME280;30873;53.908;27.576;2023-03-05T14:19:23;1001;;;6.3;51.7
45113;BME280;30873;53.908;27.576;2023-03-05T14:23:54;1001;;;8.5;46.4
45113;BME280;30873;53.908;27.576;2023-03-05T14:29:12;1000.9;;;10;42.7
45113;BME280;30873;53.908;27.576;2023-03-05T14:33:58;1001;;;8.5;43.8
45113;BME280;30873;53.908;27.576;2023-03-05T14:38:46;1001.1;;;6.6;48.3
45113;BME280;30873;53.908;27.576;2023-03-05T14:43:56;1001;;;5.5;52.5
45113;BME280;30873;53.908;27.576;2023-03-05T14:48:42;1000.9;;;5.3;54.1
45113;BME280;30873;53.908;27.576;2023-03-05T14:54:18;1001;;;5.2;54.5
45113;BME280;30873;53.908;27.576;2023-03-05T14:58:56;1001;;;4.9;54.9
45113;BME280;30873;53.908;27.576;2023-03-05T15:03:22;1001.1;;;4.7;55.6
45113;BME280;30873;53.908;27.576;2023-03-05T15:08:56;1001.1;;;4.4;56.4
45113;BME280;30873;53.908;27.576;2023-03-05T15:13:42;1001.1;;;4.4;56.5
45113;BME280;30873;53.908;27.576;2023-03-05T15:19:10;1001.1;;;4.1;56.9
45113;BME280;30873;53.908;27.576;2023-03-05T15:23:56;1001.1;;;3.9;57.2
45113;BME280;30873;53.908;27.576;2023-03-05T15:28:32;1001.1;;;3.7;55.5
45113;BME280;30873;53.908;27.576;2023-03-05T15:33:54;1001.2;;;3.3;53.5
45113;BME280;30873;53.908;27.576;2023-03-05T15:38:36;1001.2;;;2.9;53.5
45113;BME280;30873;53.908;27.576;2023-03-05T15:44:08;1001.2;;;2.7;53.9
45113;BME280;30873;53.908;27.576;2023-03-05T15:48:24;1001.1;;;2.6;54.3
45113;BME280;30873;53.908;27.576;2023-03-05T15:53:58;1001.2;;;2.6;54.4
45113;BME280;30873;53.908;27.576;2023-03-05T15:58:54;1001.2;;;2.5;54.3
45113;BME280;30873;53.908;27.576;2023-03-05T16:03:42;1001.2;;;2.4;54.2
45113;BME280;30873;53.908;27.576;2023-03-05T16:09:10;1001.2;;;2.3;54.1
45113;BME280;30873;53.908;27.576;2023-03-05T16:13:54;1001.1;;;2.2;54.4
45113;BME280;30873;53.908;27.576;2023-03-05T16:18:36;1001.2;;;2.2;54.7
45113;BME280;30873;53.908;27.576;2023-03-05T16:23:32;1001.2;;;2.1;55
45113;BME280;30873;53.908;27.576;2023-03-05T16:28:22;1001.2;;;2;55.5
45113;BME280;30873;53.908;27.576;2023-03-05T16:34:10;1001.2;;;1.9;56
45113;BME280;30873;53.908;27.576;2023-03-05T16:38:48;1001.2;;;1.9;56.1
45113;BME280;30873;53.908;27.576;2023-03-05T16:43:46;1001.2;;;1.9;56.1
45113;BME280;30873;53.908;27.576;2023-03-05T16:48:56;1001.3;;;1.9;56.3
45113;BME280;30873;53.908;27.576;2023-03-05T16:53:22;1001.3;;;1.9;56.2
45113;BME280;30873;53.908;27.576;2023-03-05T16:59:11;1001.3;;;1.8;56.2
45113;BME280;30873;53.908;27.576;2023-03-05T17:03:56;1001.3;;;1.8;56
45113;BME280;30873;53.908;27.576;2023-03-05T17:08:34;1001.3;;;1.7;55.7
45113;BME280;30873;53.908;27.576;2023-03-05T17:13:54;1001.4;;;1.7;55.8
45113;BME280;30873;53.908;27.576;2023-03-05T17:18:43;1001.4;;;1.6;56.2
45113;BME280;30873;53.908;27.576;2023-03-05T17:24:10;1001.3;;;1.6;56.6
45113;BME280;30873;53.908;27.576;2023-03-05T17:28:56;1001.3;;;1.5;56.9
45113;BME280;30873;53.908;27.576;2023-03-05T17:33:34;1001.3;;;1.5;57.4
45113;BME280;30873;53.908;27.576;2023-03-05T17:38:56;1001.3;;;1.4;57.8
45113;BME280;30873;53.908;27.576;2023-03-05T17:43:40;1001.3;;;1.3;58.1
45113;BME280;30873;53.908;27.576;2023-03-05T17:49:10;1001.4;;;1.2;58.5
45113;BME280;30873;53.908;27.576;2023-03-05T17:54:10;1001.3;;;1.1;59
45113;BME280;30873;53.908;27.576;2023-03-05T17:58:22;1001.3;;;1;59.2
45113;BME280;30873;53.908;27.576;2023-03-05T18:03:24;1001.3;;;0.9;59.4
45113;BME280;30873;53.908;27.576;2023-03-05T18:08:40;1001.3;;;0.9;59.7
45113;BME280;30873;53.908;27.576;2023-03-05T18:14:10;1001.3;;;0.9;59.6
45113;BME280;30873;53.908;27.576;2023-03-05T18:18:44;1001.3;;;0.8;59.8
45113;BME280;30873;53.908;27.576;2023-03-05T18:23:32;1001.4;;;0.7;60.2
45113;BME280;30873;53.908;27.576;2023-03-05T18:28:54;1001.4;;;0.6;60.5
45113;BME280;30873;53.908;27.576;2023-03-05T18:33:41;1001.4;;;0.5;60.9
45113;BME280;30873;53.908;27.576;2023-03-05T18:39:10;1001.4;;;0.5;61.2
45113;BME280;30873;53.908;27.576;2023-03-05T18:43:56;1001.4;;;0.5;61.3
45113;BME280;30873;53.908;27.576;2023-03-05T18:48:22;1001.4;;;0.3;62.2
45113;BME280;30873;53.908;27.576;2023-03-05T18:53:56;1001.4;;;0.3;62.7
45113;BME280;30873;53.908;27.576;2023-03-05T18:58:42;1001.4;;;0.3;62.8
45113;BME280;30873;53.908;27.576;2023-03-05T19:03:42;1001.5;;;0.2;63
45113;BME280;30873;53.908;27.576;2023-03-05T19:08:40;1001.5;;;0.3;62.9
45113;BME280;30873;53.908;27.576;2023-03-05T19:13:34;1001.5;;;0.2;63.2
45113;BME280;30873;53.908;27.576;2023-03-05T19:18:57;1001.5;;;0.2;63.4
45113;BME280;30873;53.908;27.576;2023-03-05T19:23:34;1001.4;;;0.1;63.6
45113;BME280;30873;53.908;27.576;2023-03-05T19:29:10;1001.4;;;0;63.9
45113;BME280;30873;53.908;27.576;2023-03-05T19:33:30;1001.4;;;0;64.1
45113;BME280;30873;53.908;27.576;2023-03-05T19:38:32;1001.4;;;0;63.9
45113;BME280;30873;53.908;27.576;2023-03-05T19:43:54;1001.4;;;0;64.1
45113;BME280;30873;53.908;27.576;2023-03-05T19:48:40;1001.4;;;-0.1;64.4
45113;BME280;30873;53.908;27.576;2023-03-05T19:54:10;1001.4;;;-0.1;64.6
45113;BME280;30873;53.908;27.576;2023-03-05T19:58:42;1001.3;;;-0.1;64.7
45113;BME280;30873;53.908;27.576;2023-03-05T20:03:22;1001.3;;;-0.2;65
45113;BME280;30873;53.908;27.576;2023-03-05T20:08:54;1001.4;;;-0.2;65.3
45113;BME280;30873;53.908;27.576;2023-03-05T20:13:42;1001.4;;;-0.2;65.5
45113;BME280;30873;53.908;27.576;2023-03-05T20:19:14;1001.4;;;-0.3;65.6
45113;BME280;30873;53.908;27.576;2023-03-05T20:23:42;1001.4;;;-0.3;65.8
45113;BME280;30873;53.908;27.576;2023-03-05T20:28:22;1001.4;;;-0.4;65.9
45113;BME280;30873;53.908;27.576;2023-03-05T20:34:11;1001.4;;;-0.4;66.2
45113;BME280;30873;53.908;27.576;2023-03-05T20:38:42;1001.4;;;-0.4;66.3
45113;BME280;30873;53.908;27.576;2023-03-05T20:44:10;1001.4;;;-0.4;66.4
45113;BME280;30873;53.908;27.576;2023-03-05T20:48:31;1001.4;;;-0.4;66.5
45113;BME280;30873;53.908;27.576;2023-03-05T20:53:32;1001.4;;;-0.5;66.5
45113;BME280;30873;53.908;27.576;2023-03-05T20:58:48;1001.4;;;-0.5;66.5
45113;BME280;30873;53.908;27.576;2023-03-05T21:03:22;1001.4;;;-0.5;66.5
45113;BME280;30873;53.908;27.576;2023-03-05T21:09:10;1001.4;;;-0.6;66.6
45113;BME280;30873;53.908;27.576;2023-03-05T21:13:34;1001.3;;;-0.7;66.8
45113;BME280;30873;53.908;27.576;2023-03-05T21:18:22;1001.3;;;-0.7;66.8
45113;BME280;30873;53.908;27.576;2023-03-05T21:23:56;1001.4;;;-0.7;66.9
45113;BME280;30873;53.908;27.576;2023-03-05T21:28:40;1001.3;;;-0.8;66.9
45113;BME280;30873;53.908;27.576;2023-03-05T21:33:25;1001.3;;;-0.7;66.9
45113;BME280;30873;53.908;27.576;2023-03-05T21:38:40;1001.4;;;-0.8;66.8
45113;BME280;30873;53.908;27.576;2023-03-05T21:43:22;1001.4;;;-0.9;66.9
45113;BME280;30873;53.908;27.576;2023-03-05T21:49:06;1001.4;;;-0.9;67
45113;BME280;30873;53.908;27.576;2023-03-05T21:53:54;1001.4;;;-0.9;67.1
45113;BME280;30873;53.908;27.576;2023-03-05T21:59:10;1001.4;;;-1;67
45113;BME280;30873;53.908;27.576;2023-03-05T22:03:42;1001.3;;;-1;67
45113;BME280;30873;53.908;27.576;2023-03-05T22:08:22;1001.3;;;-1;67
45113;BME280;30873;53.908;27.576;2023-03-05T22:13:56;1001.3;;;-1.1;67
45113;BME280;30873;53.908;27.576;2023-03-05T22:18:42;1001.3;;;-1.1;67
45113;BME280;30873;53.908;27.576;2023-03-05T22:24:10;1001.3;;;-1.1;67
45113;BME280;30873;53.908;27.576;2023-03-05T22:28:42;1001.3;;;-1.1;67
45113;BME280;30873;53.908;27.576;2023-03-05T22:33:34;1001.4;;;-1.1;67.1
45113;BME280;30873;53.908;27.576;2023-03-05T22:38:48;1001.4;;;-1.1;67.1
45113;BME280;30873;53.908;27.576;2023-03-05T22:43:42;1001.4;;;-1.1;67.2
45113;BME280;30873;53.908;27.576;2023-03-05T22:49:10;1001.3;;;-1.1;67.3
45113;BME280;30873;53.908;27.576;2023-03-05T22:53:22;1001.3;;;-1.1;67.2
45113;BME280;30873;53.908;27.576;2023-03-05T22:58:34;1001.3;;;-1.1;67.2
45113;BME280;30873;53.908;27.576;2023-03-05T23:04:10;1001.3;;;-1.1;67.2
45113;BME280;30873;53.908;27.576;2023-03-05T23:08:46;1001.4;;;-1.2;67.1
45113;BME280;30873;53.908;27.576;2023-03-05T23:14:00;1001.4;;;-1.2;67.3
45113;BME280;30873;53.908;27.576;2023-03-05T23:18:40;1001.3;;;-1.2;67.4
45113;BME280;30873;53.908;27.576;2023-03-05T23:23:22;1001.3;;;-1.2;67.4
45113;BME280;30873;53.908;27.576;2023-03-05T23:29:10;1001.3;;;-1.3;67.4
45113;BME280;30873;53.908;27.576;2023-03-05T23:33:22;1001.3;;;-1.3;67.5
45113;BME280;30873;53.908;27.576;2023-03-05T23:39:00;1001.3;;;-1.2;67.6
45113;BME280;30873;53.908;27.576;2023-03-05T23:43:23;1001.3;;;-1.3;67.5
45113;BME280;30873;53.908;27.576;2023-03-05T23:48:46;1001.2;;;-1.3;67.6
45113;BME280;30873;53.908;27.576;2023-03-05T23:54:10;1001.3;;;-1.4;67.7
45113;BME280;30873;53.908;27.576;2023-03-05T23:58:44;1001.3;;;-1.3;67.8
